createdAt,value
2018-08-12T00:01:49.824Z,16.20
2018-08-12T00:05:58.123Z,16.20
2018-08-12T00:10:08.057Z,16.20
2018-08-12T00:14:16.346Z,16.10
2018-08-12T00:18:24.635Z,16.10
2018-08-12T00:22:32.890Z,16.00
2018-08-12T00:26:41.147Z,15.90
2018-08-12T00:30:49.415Z,16.00
2018-08-12T00:34:57.674Z,15.90
2018-08-12T00:39:09.293Z,15.90
2018-08-12T00:43:17.561Z,15.80
2018-08-12T00:47:25.840Z,15.80
2018-08-12T00:51:34.174Z,15.80
2018-08-12T00:55:42.415Z,15.80
2018-08-12T00:59:50.684Z,15.90
2018-08-12T01:03:58.934Z,15.80
2018-08-12T01:08:07.216Z,15.80
2018-08-12T01:12:15.461Z,15.70
2018-08-12T01:16:23.699Z,15.80
2018-08-12T01:20:31.974Z,15.70
2018-08-12T01:24:40.212Z,15.70
2018-08-12T01:28:48.450Z,15.70
2018-08-12T01:37:15.787Z,15.60
2018-08-12T01:41:24.086Z,15.60
2018-08-12T01:45:32.392Z,15.50
2018-08-12T01:49:40.723Z,15.50
2018-08-12T01:53:49.002Z,15.50
2018-08-12T01:57:57.284Z,15.40
2018-08-12T02:02:05.598Z,15.30
2018-08-12T02:06:13.917Z,15.30
2018-08-12T02:10:22.195Z,15.20
2018-08-12T02:14:30.532Z,15.20
2018-08-12T02:18:38.858Z,15.20
2018-08-12T02:22:47.177Z,15.10
2018-08-12T02:26:55.518Z,15.10
2018-08-12T02:31:03.813Z,15.20
2018-08-12T02:35:12.142Z,15.10
2018-08-12T02:39:20.410Z,15.10
2018-08-12T02:43:28.730Z,15.10
2018-08-12T02:47:37.055Z,15.00
2018-08-12T02:51:45.395Z,15.00
2018-08-12T02:55:53.742Z,15.00
2018-08-12T03:00:02.076Z,15.00
2018-08-12T03:04:10.352Z,15.00
2018-08-12T03:08:18.683Z,14.90
2018-08-12T03:12:26.969Z,15.00
2018-08-12T03:16:35.294Z,14.90
2018-08-12T03:20:43.657Z,15.00
2018-08-12T03:24:52.068Z,15.00
2018-08-12T03:29:00.387Z,15.00
2018-08-12T03:33:08.675Z,14.90
2018-08-12T03:37:16.999Z,14.90
2018-08-12T03:45:33.329Z,14.80
2018-08-12T03:49:41.699Z,14.80
2018-08-12T03:53:50.049Z,14.80
2018-08-12T03:57:58.461Z,14.90
2018-08-12T04:02:06.950Z,14.90
2018-08-12T04:06:15.275Z,14.90
2018-08-12T04:10:23.571Z,14.90
2018-08-12T04:14:31.890Z,14.80
2018-08-12T04:18:40.209Z,14.80
2018-08-12T04:22:48.579Z,14.90
2018-08-12T04:26:56.826Z,14.90
2018-08-12T04:31:05.166Z,14.90
2018-08-12T04:35:13.470Z,15.00
2018-08-12T04:39:21.743Z,15.00
2018-08-12T04:43:30.030Z,15.10
2018-08-12T04:47:38.757Z,15.10
2018-08-12T04:51:47.050Z,15.10
2018-08-12T04:55:55.552Z,15.20
2018-08-12T05:00:05.451Z,15.20
2018-08-12T05:04:13.759Z,15.20
2018-08-12T05:08:22.051Z,15.30
2018-08-12T05:12:30.343Z,15.40
2018-08-12T05:16:38.693Z,15.40
2018-08-12T05:20:46.969Z,15.50
2018-08-12T05:24:55.282Z,15.40
2018-08-12T05:29:03.635Z,15.40
2018-08-12T05:33:11.942Z,15.50
2018-08-12T05:37:20.234Z,15.70
2018-08-12T05:41:28.555Z,15.80
2018-08-12T05:45:36.877Z,15.90
2018-08-12T05:49:45.210Z,15.90
2018-08-12T05:53:53.530Z,15.90
2018-08-12T05:58:02.018Z,16.00
2018-08-12T06:02:10.321Z,16.00
2018-08-12T06:06:19.015Z,16.00
2018-08-12T06:10:27.330Z,16.00
2018-08-12T06:14:35.636Z,16.10
2018-08-12T06:18:44.003Z,16.30
2018-08-12T06:22:52.330Z,16.40
2018-08-12T06:27:00.609Z,16.40
2018-08-12T06:31:08.918Z,16.70
2018-08-12T06:35:17.255Z,16.70
2018-08-12T06:39:25.556Z,17.00
2018-08-12T06:43:33.878Z,17.00
2018-08-12T06:47:42.714Z,17.10
2018-08-12T06:51:51.025Z,17.50
2018-08-12T06:55:59.408Z,17.70
2018-08-12T07:00:09.829Z,17.80
2018-08-12T07:04:18.168Z,17.90
2018-08-12T07:08:26.487Z,18.00
2018-08-12T07:12:34.799Z,17.90
2018-08-12T07:16:43.126Z,18.20
2018-08-12T07:20:51.421Z,18.30
2018-08-12T07:24:59.729Z,18.20
2018-08-12T07:29:08.046Z,18.30
2018-08-12T07:33:16.347Z,18.40
2018-08-12T07:37:24.633Z,18.30
2018-08-12T07:41:32.940Z,18.40
2018-08-12T07:45:41.230Z,18.40
2018-08-12T07:49:49.545Z,18.60
2018-08-12T07:53:57.882Z,18.60
2018-08-12T07:58:06.343Z,18.60
2018-08-12T08:02:14.637Z,18.80
2018-08-12T08:06:23.060Z,19.10
2018-08-12T08:10:31.261Z,19.20
2018-08-12T08:14:39.562Z,19.40
2018-08-12T08:18:47.875Z,19.70
2018-08-12T08:22:56.231Z,19.90
2018-08-12T08:27:04.567Z,20.20
2018-08-12T08:31:12.878Z,20.40
2018-08-12T08:35:21.390Z,20.40
2018-08-12T08:39:29.693Z,20.60
2018-08-12T08:43:38.042Z,20.80
2018-08-12T08:47:47.507Z,20.90
2018-08-12T08:51:55.807Z,21.10
2018-08-12T08:56:04.239Z,21.20
2018-08-12T09:04:22.364Z,21.90
2018-08-12T09:08:30.812Z,22.10
2018-08-12T09:12:39.305Z,22.20
2018-08-12T09:16:47.621Z,22.60
2018-08-12T09:20:55.941Z,22.90
2018-08-12T09:25:04.839Z,23.10
2018-08-12T09:29:13.165Z,23.10
2018-08-12T09:33:21.439Z,23.10
2018-08-12T09:37:29.792Z,23.30
2018-08-12T09:41:38.101Z,23.40
2018-08-12T09:45:46.397Z,23.50
2018-08-12T09:49:54.746Z,23.50
2018-08-12T09:54:03.045Z,23.70
2018-08-12T09:58:11.367Z,24.00
2018-08-12T10:02:19.687Z,24.30
2018-08-12T10:06:27.982Z,24.50
2018-08-12T10:10:36.258Z,24.60
2018-08-12T10:14:44.562Z,24.50
2018-08-12T10:18:52.927Z,24.40
2018-08-12T10:23:01.288Z,24.50
2018-08-12T10:27:09.652Z,24.90
2018-08-12T10:31:17.980Z,25.00
2018-08-12T10:35:26.291Z,25.10
2018-08-12T10:39:34.625Z,25.20
2018-08-12T10:43:42.986Z,25.20
2018-08-12T10:47:51.367Z,25.40
2018-08-12T10:52:00.504Z,25.60
2018-08-12T10:56:08.868Z,25.70
2018-08-12T11:00:21.776Z,25.70
2018-08-12T11:04:30.110Z,26.00
2018-08-12T11:08:38.454Z,26.00
2018-08-12T11:12:46.889Z,26.20
2018-08-12T11:16:55.232Z,26.30
2018-08-12T11:21:03.590Z,26.50
2018-08-12T11:25:12.546Z,26.60
2018-08-12T11:29:20.895Z,26.60
2018-08-12T11:33:29.216Z,26.90
2018-08-12T11:37:37.556Z,27.10
2018-08-12T11:41:45.868Z,27.10
2018-08-12T11:45:54.195Z,27.30
2018-08-12T11:50:02.688Z,27.50
2018-08-12T11:54:11.033Z,27.30
2018-08-12T11:58:19.369Z,27.40
2018-08-12T12:02:27.709Z,27.60
2018-08-12T12:06:36.087Z,27.60
2018-08-12T12:10:44.382Z,27.90
2018-08-12T12:14:52.693Z,27.90
2018-08-12T12:19:01.071Z,27.90
2018-08-12T12:23:09.490Z,27.90
2018-08-12T12:27:17.802Z,27.90
2018-08-12T12:31:26.128Z,27.70
2018-08-12T12:35:34.528Z,27.80
2018-08-12T12:39:42.806Z,28.10
2018-08-12T12:43:51.188Z,27.90
2018-08-12T12:47:59.550Z,27.80
2018-08-12T12:52:08.466Z,27.70
2018-08-12T12:56:16.797Z,27.90
2018-08-12T13:00:25.126Z,28.10
2018-08-12T13:04:33.451Z,28.00
2018-08-12T13:08:41.764Z,27.90
2018-08-12T13:12:50.111Z,27.90
2018-08-12T13:16:58.415Z,28.10
2018-08-12T13:21:06.758Z,28.00
2018-08-12T13:25:16.800Z,28.20
2018-08-12T13:33:33.167Z,28.60
2018-08-12T13:37:41.641Z,28.60
2018-08-12T13:41:49.989Z,28.70
2018-08-12T13:45:58.358Z,28.80
2018-08-12T13:50:09.243Z,29.00
2018-08-12T13:54:17.552Z,29.10
2018-08-12T13:58:25.925Z,29.10
2018-08-12T14:02:34.203Z,29.10
2018-08-12T14:06:42.522Z,29.30
2018-08-12T14:10:50.857Z,29.20
2018-08-12T14:14:59.159Z,29.00
2018-08-12T14:19:07.499Z,29.10
2018-08-12T14:23:15.805Z,29.10
2018-08-12T14:27:24.135Z,29.10
2018-08-12T14:31:32.417Z,29.10
2018-08-12T14:35:40.720Z,29.30
2018-08-12T14:39:49.252Z,29.40
2018-08-12T14:43:57.552Z,29.30
2018-08-12T14:48:06.445Z,29.30
2018-08-12T14:52:14.759Z,29.40
2018-08-12T14:56:23.107Z,29.50
2018-08-12T15:00:31.437Z,29.50
2018-08-12T15:04:39.784Z,29.40
2018-08-12T15:08:48.083Z,29.40
2018-08-12T15:12:56.424Z,29.40
2018-08-12T15:17:04.766Z,29.30
2018-08-12T15:21:13.079Z,29.20
2018-08-12T15:25:21.737Z,29.10
2018-08-12T15:29:30.082Z,29.20
2018-08-12T15:33:38.389Z,29.10
2018-08-12T15:37:46.733Z,29.10
2018-08-12T15:41:55.047Z,29.10
2018-08-12T15:46:03.385Z,28.90
2018-08-12T15:50:12.206Z,28.80
2018-08-12T15:54:20.529Z,28.90
2018-08-12T15:58:28.870Z,28.90
2018-08-12T16:02:37.172Z,28.60
2018-08-12T16:06:45.482Z,28.50
2018-08-12T16:10:53.805Z,28.50
2018-08-12T16:15:02.099Z,28.50
2018-08-12T16:19:10.461Z,28.40
2018-08-12T16:23:18.796Z,28.50
2018-08-12T16:27:27.154Z,28.50
2018-08-12T16:31:35.434Z,28.40
2018-08-12T16:35:43.806Z,28.40
2018-08-12T16:39:52.090Z,28.40
2018-08-12T16:44:00.394Z,28.40
2018-08-12T16:48:08.697Z,28.30
2018-08-12T16:52:16.996Z,28.00
2018-08-12T16:56:25.349Z,28.00
2018-08-12T17:00:33.695Z,27.90
2018-08-12T17:04:42.069Z,27.90
2018-08-12T17:08:50.422Z,27.90
2018-08-12T17:12:58.763Z,27.90
2018-08-12T17:17:07.081Z,27.70
2018-08-12T17:21:15.443Z,27.40
2018-08-12T17:25:23.811Z,27.40
2018-08-12T17:29:32.180Z,27.20
2018-08-12T17:33:40.524Z,27.00
2018-08-12T17:37:48.822Z,27.00
2018-08-12T17:41:57.134Z,26.90
2018-08-12T17:46:05.439Z,26.90
2018-08-12T17:50:15.213Z,26.90
2018-08-12T17:54:23.592Z,26.80
2018-08-12T17:58:31.958Z,26.80
2018-08-12T18:02:40.434Z,26.70
2018-08-12T18:06:48.757Z,26.60
2018-08-12T18:10:57.082Z,26.40
2018-08-12T18:15:06.258Z,26.20
2018-08-12T18:19:14.611Z,26.10
2018-08-12T18:23:22.925Z,25.90
2018-08-12T18:27:31.267Z,25.80
2018-08-12T18:31:39.607Z,25.70
2018-08-12T18:35:47.928Z,25.60
2018-08-12T18:39:56.253Z,25.50
2018-08-12T18:44:04.617Z,25.50
2018-08-12T18:48:12.925Z,25.40
2018-08-12T18:52:21.242Z,25.40
2018-08-12T18:56:29.613Z,25.20
2018-08-12T19:00:37.919Z,25.10
2018-08-12T19:04:46.210Z,25.10
2018-08-12T19:08:54.555Z,25.10
2018-08-12T19:13:02.904Z,24.90
2018-08-12T19:17:11.244Z,24.80
2018-08-12T19:21:19.575Z,24.70
2018-08-12T19:25:27.940Z,24.60
2018-08-12T19:29:36.241Z,24.60
2018-08-12T19:33:44.598Z,24.50
2018-08-12T19:37:52.830Z,24.40
2018-08-12T19:42:01.164Z,24.10
2018-08-12T19:46:09.494Z,24.00
2018-08-12T19:50:17.819Z,23.80
2018-08-12T19:54:26.135Z,23.80
2018-08-12T19:58:34.438Z,23.80
2018-08-12T20:02:43.417Z,23.70
2018-08-12T20:06:51.769Z,23.60
2018-08-12T20:11:00.035Z,23.40
2018-08-12T20:15:10.291Z,23.30
2018-08-12T20:19:18.633Z,23.10
2018-08-12T20:23:27.002Z,23.10
2018-08-12T20:27:35.286Z,23.00
2018-08-12T20:31:43.578Z,22.90
2018-08-12T20:35:51.891Z,22.80
2018-08-12T20:40:00.237Z,22.60
2018-08-12T20:44:08.541Z,22.60
2018-08-12T20:48:16.861Z,22.50
2018-08-12T20:52:25.162Z,22.40
2018-08-12T20:56:33.508Z,22.20
2018-08-12T21:00:41.836Z,22.10
2018-08-12T21:04:50.195Z,22.10
2018-08-12T21:13:07.298Z,22.00
2018-08-12T21:17:15.747Z,21.80
2018-08-12T21:21:24.067Z,21.70
2018-08-12T21:25:32.381Z,21.70
2018-08-12T21:29:40.706Z,21.60
2018-08-12T21:33:49.030Z,21.50
2018-08-12T21:37:57.397Z,21.50
2018-08-12T21:42:05.702Z,21.30
2018-08-12T21:46:14.014Z,21.30
2018-08-12T21:50:22.345Z,21.20
2018-08-12T21:54:30.676Z,21.20
2018-08-12T21:58:39.038Z,21.10
2018-08-12T22:02:47.331Z,21.10
2018-08-12T22:06:55.647Z,21.00
2018-08-12T22:11:04.009Z,21.00
2018-08-12T22:15:12.342Z,20.90
2018-08-12T22:19:20.645Z,20.80
2018-08-12T22:23:28.983Z,20.70
2018-08-12T22:27:37.290Z,20.70
2018-08-12T22:31:45.602Z,20.60
2018-08-12T22:35:53.922Z,20.50
2018-08-12T22:40:02.199Z,20.40
2018-08-12T22:44:10.472Z,20.30
2018-08-12T22:48:18.830Z,20.40
2018-08-12T22:52:27.099Z,20.30
2018-08-12T22:56:35.413Z,20.30
2018-08-12T23:00:43.930Z,20.20
2018-08-12T23:04:52.631Z,20.20
2018-08-12T23:09:00.921Z,20.10
2018-08-12T23:13:09.316Z,20.10
2018-08-12T23:17:17.623Z,20.00
2018-08-12T23:21:25.961Z,20.00
2018-08-12T23:25:34.266Z,20.00
2018-08-12T23:29:42.571Z,19.90
2018-08-12T23:33:50.889Z,19.90
2018-08-12T23:37:59.216Z,19.90
2018-08-12T23:42:07.498Z,19.70
2018-08-12T23:46:15.808Z,19.70
2018-08-12T23:50:24.130Z,19.70
2018-08-12T23:54:32.445Z,19.70
2018-08-12T23:58:40.782Z,19.70
